createdAt,value
2019-04-18T00:00:12.333Z,15.23
2019-04-18T00:05:34.029Z,15.80
2019-04-18T00:13:41.240Z,12.63
2019-04-18T00:19:15.712Z,13.97
2019-04-18T00:21:52.672Z,18.07
2019-04-18T00:27:18.220Z,12.93
2019-04-18T00:29:47.209Z,18.27
2019-04-18T00:32:17.826Z,14.03
2019-04-18T00:34:46.629Z,14.27
2019-04-18T00:37:16.299Z,18.87
2019-04-18T00:39:49.532Z,16.20
2019-04-18T00:42:22.431Z,16.87
2019-04-18T00:44:56.269Z,16.10
2019-04-18T00:47:31.155Z,21.00
2019-04-18T00:50:07.317Z,14.50
2019-04-18T00:52:36.231Z,18.80
2019-04-18T00:55:07.646Z,15.80
2019-04-18T00:57:38.125Z,23.23
2019-04-18T01:00:13.783Z,13.73
2019-04-18T01:02:42.343Z,28.57
2019-04-18T01:05:12.205Z,15.97
2019-04-18T01:13:18.988Z,15.93
2019-04-18T01:18:56.890Z,12.60
2019-04-18T01:21:34.108Z,16.00
2019-04-18T01:29:44.652Z,15.80
2019-04-18T01:32:11.512Z,19.17
2019-04-18T01:34:42.095Z,24.50
2019-04-18T01:48:42.545Z,23.90
2019-04-18T01:51:13.030Z,19.47
2019-04-18T01:56:33.503Z,20.10
2019-04-18T01:59:06.444Z,17.60
2019-04-18T02:01:32.166Z,19.00
2019-04-18T02:04:06.224Z,21.80
2019-04-18T02:09:16.456Z,18.33
2019-04-18T02:11:44.740Z,22.93
2019-04-18T02:19:47.712Z,28.13
2019-04-18T02:22:17.043Z,24.83
2019-04-18T02:27:29.881Z,23.63
2019-04-18T02:29:57.450Z,25.47
2019-04-18T02:35:21.212Z,23.90
2019-04-18T02:40:46.199Z,20.63
2019-04-18T02:46:04.641Z,19.67
2019-04-18T02:48:30.768Z,25.83
2019-04-18T02:51:03.590Z,21.90
2019-04-18T02:53:36.860Z,30.50
2019-04-18T02:56:06.247Z,24.53
2019-04-18T03:01:41.855Z,22.17
2019-04-18T03:04:18.789Z,20.77
2019-04-18T03:06:48.832Z,23.57
2019-04-18T03:09:17.350Z,16.23
2019-04-18T03:11:48.092Z,31.33
2019-04-18T03:14:22.448Z,23.27
2019-04-18T03:16:57.547Z,17.03
2019-04-18T03:19:26.684Z,20.07
2019-04-18T03:21:55.979Z,24.30
2019-04-18T03:24:24.578Z,27.60
2019-04-18T03:27:00.728Z,29.57
2019-04-18T03:29:26.519Z,20.07
2019-04-18T03:31:59.074Z,20.43
2019-04-18T03:34:29.749Z,28.53
2019-04-18T03:37:05.311Z,23.50
2019-04-18T03:42:23.136Z,17.40
2019-04-18T03:45:34.509Z,18.80
2019-04-18T03:48:04.055Z,25.13
2019-04-18T03:50:44.614Z,27.13
2019-04-18T03:53:18.094Z,26.77
2019-04-18T03:55:56.346Z,23.90
2019-04-18T04:01:09.236Z,19.00
2019-04-18T04:03:36.091Z,24.50
2019-04-18T04:06:16.762Z,22.57
2019-04-18T04:08:35.711Z,23.63
2019-04-18T04:11:06.422Z,19.40
2019-04-18T04:13:33.879Z,28.73
2019-04-18T04:16:04.935Z,19.47
2019-04-18T04:18:38.805Z,20.10
2019-04-18T04:21:06.314Z,13.57
2019-04-18T04:23:40.531Z,22.23
2019-04-18T04:29:04.645Z,20.73
2019-04-18T04:31:40.494Z,15.67
2019-04-18T04:34:17.957Z,29.20
2019-04-18T04:36:44.734Z,29.43
2019-04-18T04:39:13.112Z,20.83
2019-04-18T04:44:33.527Z,18.97
2019-04-18T04:47:21.465Z,16.40
2019-04-18T04:49:47.990Z,19.07
2019-04-18T04:52:22.797Z,16.67
2019-04-18T04:54:50.778Z,25.33
2019-04-18T04:57:46.716Z,14.60
2019-04-18T05:00:15.822Z,22.87
2019-04-18T05:02:42.786Z,19.27
2019-04-18T05:05:14.042Z,11.40
2019-04-18T05:07:57.287Z,13.53
2019-04-18T05:10:39.470Z,22.00
2019-04-18T05:13:10.068Z,14.80
2019-04-18T05:15:39.768Z,19.20
2019-04-18T05:18:07.025Z,14.43
2019-04-18T05:20:40.748Z,15.60
2019-04-18T05:23:09.396Z,24.97
2019-04-18T05:25:42.152Z,15.17
2019-04-18T05:28:11.091Z,20.03
2019-04-18T05:30:47.770Z,16.20
2019-04-18T05:33:15.197Z,14.27
2019-04-18T05:36:01.213Z,16.13
2019-04-18T05:38:30.093Z,24.23
2019-04-18T05:40:58.476Z,18.37
2019-04-18T05:43:31.013Z,21.10
2019-04-18T05:46:00.000Z,13.00
2019-04-18T05:48:45.379Z,11.93
2019-04-18T05:51:30.320Z,13.67
2019-04-18T05:54:02.934Z,16.27
2019-04-18T05:56:30.302Z,19.63
2019-04-18T05:59:02.584Z,13.23
2019-04-18T06:04:38.568Z,21.47
2019-04-18T06:07:15.332Z,21.30
2019-04-18T06:09:42.836Z,16.10
2019-04-18T06:12:32.758Z,17.20
2019-04-18T06:15:11.897Z,14.20
2019-04-18T06:17:45.633Z,17.00
2019-04-18T06:20:15.421Z,12.40
2019-04-18T06:22:47.109Z,15.40
2019-04-18T06:25:22.591Z,17.20
2019-04-18T06:27:58.428Z,11.63
2019-04-18T06:30:30.619Z,22.67
2019-04-18T06:33:03.254Z,16.73
2019-04-18T06:35:31.716Z,13.60
2019-04-18T06:40:53.379Z,17.67
2019-04-18T06:43:25.580Z,20.67
2019-04-18T06:45:52.872Z,16.10
2019-04-18T06:48:28.254Z,14.20
2019-04-18T06:50:58.333Z,21.87
2019-04-18T06:56:18.661Z,9.83
2019-04-18T06:58:50.130Z,17.00
2019-04-18T07:01:18.824Z,11.43
2019-04-18T07:06:54.505Z,8.80
2019-04-18T07:09:23.863Z,10.27
2019-04-18T07:12:11.588Z,13.10
2019-04-18T07:14:39.982Z,11.40
2019-04-18T07:17:23.304Z,11.40
2019-04-18T07:20:00.055Z,13.90
2019-04-18T07:22:29.806Z,16.23
2019-04-18T07:24:58.701Z,10.43
2019-04-18T07:27:25.605Z,23.53
2019-04-18T07:29:56.014Z,20.33
2019-04-18T07:32:24.555Z,12.90
2019-04-18T07:34:53.039Z,15.23
2019-04-18T08:22:50.300Z,12.63
2019-04-18T08:28:07.848Z,10.40
2019-04-18T08:30:36.135Z,17.20
2019-04-18T08:33:09.919Z,11.40
2019-04-18T08:35:53.157Z,14.27
2019-04-18T08:38:28.477Z,15.17
2019-04-18T08:41:17.491Z,15.10
2019-04-18T08:43:52.444Z,11.90
2019-04-18T08:46:27.642Z,12.47
2019-04-18T08:51:46.401Z,27.53
2019-04-18T08:54:32.035Z,16.07
2019-04-18T08:57:10.288Z,11.00
2019-04-18T08:59:41.363Z,13.40
2019-04-18T09:02:14.842Z,18.93
2019-04-18T09:04:45.044Z,13.27
2019-04-18T09:07:19.806Z,9.43
2019-04-18T09:09:42.848Z,11.10
2019-04-18T09:12:13.510Z,8.97
2019-04-18T09:17:49.021Z,11.40
2019-04-18T09:20:30.095Z,8.27
2019-04-18T09:22:52.571Z,10.20
2019-04-18T09:25:25.038Z,10.80
2019-04-18T09:27:57.667Z,14.80
2019-04-18T09:30:26.409Z,9.17
2019-04-18T09:32:56.666Z,10.40
2019-04-18T09:35:24.343Z,8.10
2019-04-18T09:37:51.390Z,9.50
2019-04-18T09:40:29.685Z,18.70
2019-04-18T09:42:57.756Z,13.03
2019-04-18T09:45:42.892Z,10.77
2019-04-18T09:48:15.391Z,13.60
2019-04-18T09:50:49.692Z,13.70
2019-04-18T09:53:16.273Z,9.80
2019-04-18T09:55:52.348Z,10.63
2019-04-18T10:01:09.958Z,8.60
2019-04-18T10:06:26.375Z,8.90
2019-04-18T10:08:55.571Z,9.00
2019-04-18T10:11:38.315Z,11.13
2019-04-18T10:14:07.270Z,11.70
2019-04-18T10:16:40.486Z,9.40
2019-04-18T10:19:09.327Z,11.03
2019-04-18T10:21:46.906Z,10.00
2019-04-18T10:24:18.455Z,6.00
2019-04-18T10:27:00.924Z,16.50
2019-04-18T11:27:45.062Z,6.10
2019-04-18T11:30:12.757Z,8.33
2019-04-18T11:32:39.250Z,7.77
2019-04-18T11:35:10.175Z,13.93
2019-04-18T11:37:36.727Z,6.80
2019-04-18T11:40:07.133Z,10.80
2019-04-18T11:42:50.845Z,23.03
2019-04-18T11:45:20.489Z,10.90
2019-04-18T11:47:50.464Z,7.40
2019-04-18T11:50:18.295Z,6.77
2019-04-18T11:52:55.349Z,6.97
2019-04-18T11:55:27.448Z,5.33
2019-04-18T11:57:54.080Z,8.50
2019-04-18T12:00:23.988Z,9.13
2019-04-18T12:02:57.686Z,7.30
2019-04-18T12:05:26.829Z,10.53
2019-04-18T12:08:02.961Z,7.50
2019-04-18T12:10:29.800Z,7.70
2019-04-18T12:13:01.876Z,6.70
2019-04-18T12:15:32.183Z,7.00
2019-04-18T12:18:01.053Z,11.23
2019-04-18T12:20:29.039Z,7.70
2019-04-18T12:22:58.569Z,5.43
2019-04-18T12:25:33.897Z,7.30
2019-04-18T12:28:01.230Z,7.63
2019-04-18T12:30:29.614Z,9.27
2019-04-18T12:33:02.631Z,7.93
2019-04-18T12:35:45.137Z,5.20
2019-04-18T12:38:13.832Z,5.70
2019-04-18T12:40:42.203Z,8.80
2019-04-18T12:43:09.573Z,11.60
2019-04-18T12:45:39.615Z,7.93
2019-04-18T12:48:09.467Z,13.00
2019-04-18T12:50:37.676Z,7.23
2019-04-18T12:53:04.429Z,9.80
2019-04-18T12:55:31.068Z,8.60
2019-04-18T12:58:06.121Z,6.70
2019-04-18T13:00:34.040Z,6.17
2019-04-18T13:03:02.027Z,8.03
2019-04-18T13:05:28.597Z,5.90
2019-04-18T13:08:03.815Z,6.13
2019-04-18T13:10:38.554Z,11.73
2019-04-18T13:13:16.039Z,7.00
2019-04-18T13:15:50.656Z,6.60
2019-04-18T13:18:18.729Z,13.80
2019-04-18T13:20:45.346Z,18.20
2019-04-18T13:23:15.073Z,8.50
2019-04-18T13:25:42.240Z,9.50
2019-04-18T13:28:08.978Z,6.80
2019-04-18T13:30:36.592Z,10.10
2019-04-18T13:33:08.501Z,5.87
2019-04-18T13:35:38.641Z,7.77
2019-04-18T13:38:08.181Z,9.27
2019-04-18T13:40:35.815Z,8.30
2019-04-18T13:43:09.157Z,5.73
2019-04-18T13:45:38.360Z,14.43
2019-04-18T13:48:11.808Z,13.87
2019-04-18T13:50:38.966Z,5.97
2019-04-18T13:53:14.362Z,7.70
2019-04-18T13:55:46.207Z,6.37
2019-04-18T13:58:15.714Z,5.37
2019-04-18T14:00:44.988Z,5.80
2019-04-18T14:03:27.044Z,9.93
2019-04-18T14:05:53.645Z,11.33
2019-04-18T14:08:21.961Z,6.27
2019-04-18T14:10:54.888Z,8.77
2019-04-18T14:13:30.976Z,6.30
2019-04-18T14:16:06.744Z,8.03
2019-04-18T14:18:39.964Z,5.47
2019-04-18T14:21:11.377Z,7.13
2019-04-18T14:23:44.277Z,12.67
2019-04-18T14:26:14.401Z,7.00
2019-04-18T14:28:42.860Z,6.33
2019-04-18T14:31:18.338Z,8.17
2019-04-18T14:33:45.133Z,7.57
2019-04-18T14:36:26.108Z,9.70
2019-04-18T14:38:55.693Z,5.80
2019-04-18T14:44:15.709Z,6.83
2019-04-18T14:46:47.132Z,5.10
2019-04-18T14:49:14.994Z,6.83
2019-04-18T14:51:44.448Z,8.80
2019-04-18T14:54:15.895Z,8.07
2019-04-18T14:56:45.804Z,8.83
2019-04-18T14:59:27.910Z,4.20
2019-04-18T15:01:55.507Z,5.10
2019-04-18T15:04:24.740Z,8.30
2019-04-18T15:09:49.954Z,8.77
2019-04-18T15:12:23.811Z,8.97
2019-04-18T15:14:56.527Z,7.17
2019-04-18T15:17:23.985Z,5.77
2019-04-18T15:19:51.028Z,9.90
2019-04-18T15:25:16.067Z,13.27
2019-04-18T15:27:44.762Z,8.67
2019-04-18T15:30:30.436Z,11.73
2019-04-18T15:33:11.744Z,10.93
2019-04-18T15:35:42.779Z,8.27
2019-04-18T15:38:15.983Z,7.17
2019-04-18T15:40:46.490Z,11.27
2019-04-18T15:43:15.028Z,7.80
2019-04-18T15:45:47.848Z,10.33
2019-04-18T15:48:22.903Z,12.90
2019-04-18T15:50:51.745Z,12.63
2019-04-18T15:53:22.768Z,12.07
2019-04-18T15:55:51.678Z,11.40
2019-04-18T15:58:28.261Z,10.43
2019-04-18T16:01:03.644Z,11.53
2019-04-18T16:03:30.820Z,9.87
2019-04-18T16:08:53.677Z,8.77
2019-04-18T16:11:26.237Z,8.30
2019-04-18T16:13:53.539Z,11.70
2019-04-18T16:16:22.872Z,8.80
2019-04-18T16:18:57.667Z,14.10
2019-04-18T16:21:44.372Z,8.93
2019-04-18T16:27:00.507Z,8.80
2019-04-18T16:29:33.658Z,9.47
2019-04-18T16:37:44.547Z,11.17
2019-04-18T16:40:13.023Z,13.67
2019-04-18T16:42:48.906Z,13.33
2019-04-18T16:45:19.207Z,19.73
2019-04-18T16:47:47.006Z,13.13
2019-04-18T16:50:45.115Z,19.00
2019-04-18T16:56:08.074Z,11.23
2019-04-18T16:58:35.909Z,10.40
2019-04-18T17:01:06.368Z,11.47
2019-04-18T17:06:22.403Z,8.33
2019-04-18T17:08:50.239Z,16.67
2019-04-18T17:11:19.698Z,14.50
2019-04-18T17:13:47.978Z,9.00
2019-04-18T17:16:21.542Z,12.43
2019-04-18T17:19:04.163Z,12.10
2019-04-18T17:21:50.559Z,10.13
2019-04-18T17:24:28.811Z,17.67
2019-04-18T17:27:02.066Z,23.50
2019-04-18T17:29:37.315Z,13.73
2019-04-18T17:32:07.443Z,11.13
2019-04-18T17:34:46.962Z,16.00
2019-04-18T17:40:26.758Z,13.77
2019-04-18T17:42:45.095Z,11.03
2019-04-18T17:45:16.808Z,18.07
2019-04-18T17:47:46.446Z,10.53
2019-04-18T17:50:17.932Z,15.10
2019-04-18T17:52:56.648Z,12.43
2019-04-18T17:55:40.939Z,14.70
2019-04-18T17:58:08.699Z,17.73
2019-04-18T18:00:41.360Z,17.50
2019-04-18T18:03:25.024Z,17.90
2019-04-18T18:06:09.691Z,15.13
2019-04-18T18:11:16.752Z,18.03
2019-04-18T18:13:53.290Z,19.10
2019-04-18T18:16:26.832Z,15.60
2019-04-18T18:19:01.602Z,10.13
2019-04-18T18:21:36.858Z,13.10
2019-04-18T18:24:13.742Z,13.10
2019-04-18T18:26:48.487Z,13.40
2019-04-18T18:32:03.402Z,16.37
2019-04-18T18:34:49.569Z,14.73
2019-04-18T18:40:17.458Z,11.93
2019-04-18T18:42:48.244Z,15.30
2019-04-18T18:45:29.107Z,11.40
2019-04-18T18:47:55.438Z,13.30
2019-04-18T18:50:45.800Z,10.67
2019-04-18T18:53:15.358Z,13.63
2019-04-18T18:55:45.701Z,20.60
2019-04-18T18:58:20.540Z,16.00
2019-04-18T19:00:52.931Z,13.40
2019-04-18T19:03:21.435Z,13.67
2019-04-18T19:06:00.769Z,16.53
2019-04-18T19:11:34.009Z,22.50
2019-04-18T19:14:00.583Z,21.30
2019-04-18T19:16:28.558Z,11.90
2019-04-18T19:18:45.387Z,15.10
2019-04-18T19:21:17.878Z,20.63
2019-04-18T19:23:54.951Z,22.43
2019-04-18T19:26:27.891Z,23.00
2019-04-18T19:29:09.606Z,16.70
2019-04-18T19:31:29.254Z,13.17
2019-04-18T19:34:03.110Z,14.70
2019-04-18T19:36:45.904Z,21.50
2019-04-18T19:42:05.164Z,31.77
2019-04-18T19:47:13.820Z,16.07
2019-04-18T19:52:39.491Z,17.67
2019-04-18T19:55:15.272Z,11.77
2019-04-18T19:57:43.648Z,15.27
2019-04-18T20:00:13.585Z,13.40
2019-04-18T20:08:28.589Z,15.17
2019-04-18T20:13:47.328Z,17.27
2019-04-18T20:16:11.786Z,22.00
2019-04-18T20:18:45.473Z,18.07
2019-04-18T20:21:15.954Z,18.57
2019-04-18T20:23:51.304Z,13.47
2019-04-18T20:26:35.759Z,14.85
2019-04-18T20:29:14.637Z,16.23
2019-04-18T20:31:50.760Z,14.03
2019-04-18T20:34:30.951Z,19.57
2019-04-18T20:37:16.915Z,27.90
2019-04-18T20:40:05.266Z,22.30
2019-04-18T20:42:25.095Z,21.30
2019-04-18T20:44:45.541Z,15.73
2019-04-18T20:47:27.038Z,13.00
2019-04-18T20:50:04.108Z,19.30
2019-04-18T20:55:28.177Z,30.80
2019-04-18T21:00:35.443Z,13.77
2019-04-18T21:03:13.593Z,14.97
2019-04-18T21:05:47.378Z,18.43
2019-04-18T21:11:11.716Z,16.13
2019-04-18T21:13:54.793Z,13.90
2019-04-18T21:16:40.711Z,22.43
2019-04-18T21:19:17.254Z,20.10
2019-04-18T21:21:43.845Z,19.40
2019-04-18T21:24:10.505Z,26.33
2019-04-18T21:26:40.089Z,23.37
2019-04-18T21:29:11.656Z,26.07
2019-04-18T21:34:36.807Z,18.83
2019-04-18T21:37:22.805Z,14.90
2019-04-18T21:42:34.494Z,18.53
2019-04-18T21:47:49.465Z,12.30
2019-04-18T21:53:05.300Z,19.53
2019-04-18T21:58:45.111Z,18.33
2019-04-18T22:01:16.542Z,10.10
2019-04-18T22:03:49.334Z,16.67
2019-04-18T22:09:20.520Z,14.60
2019-04-18T22:11:56.958Z,15.10
2019-04-18T22:14:23.128Z,16.50
2019-04-18T22:17:00.500Z,11.60
2019-04-18T22:19:27.071Z,16.37
2019-04-18T22:21:55.191Z,14.80
2019-04-18T22:24:33.641Z,20.43
2019-04-18T22:27:07.441Z,19.50
2019-04-18T22:29:41.348Z,14.07
2019-04-18T22:32:18.298Z,12.80
2019-04-18T22:34:43.762Z,14.03
2019-04-18T22:37:28.921Z,16.33
2019-04-18T22:39:49.080Z,12.10
2019-04-18T22:42:22.236Z,10.80
2019-04-18T22:45:00.403Z,18.40
2019-04-18T22:47:23.531Z,16.17
2019-04-18T22:50:08.618Z,20.20
2019-04-18T22:52:38.090Z,32.43
2019-04-18T23:03:10.352Z,18.85
2019-04-18T23:05:38.402Z,21.87
2019-04-18T23:08:22.744Z,25.60
2019-04-18T23:10:39.766Z,21.33
2019-04-18T23:13:19.173Z,27.17
2019-04-18T23:18:40.810Z,21.30
2019-04-18T23:21:29.086Z,15.63
2019-04-18T23:24:10.925Z,19.60
2019-04-18T23:26:41.238Z,21.33
2019-04-18T23:29:17.475Z,15.17
2019-04-18T23:32:03.962Z,24.30
2019-04-18T23:34:52.350Z,17.03
2019-04-18T23:37:32.701Z,17.30
2019-04-18T23:43:08.244Z,20.97
2019-04-18T23:45:42.259Z,23.23
2019-04-18T23:51:12.818Z,27.37
2019-04-18T23:53:52.768Z,15.63
2019-04-18T23:56:31.315Z,21.80
